createdAt,value
2022-12-22T00:00:02.125Z,99892.66
2022-12-22T00:02:48.017Z,99889.50
2022-12-22T00:05:34.393Z,99887.44
2022-12-22T00:08:22.388Z,99884.69
2022-12-22T00:11:07.801Z,99887.63
2022-12-22T00:13:53.872Z,99881.38
2022-12-22T00:16:53.014Z,99882.94
2022-12-22T00:19:39.168Z,99875.59
2022-12-22T00:22:32.648Z,99878.38
2022-12-22T00:25:18.462Z,99872.84
2022-12-22T00:28:03.871Z,99871.56
2022-12-22T00:30:49.216Z,99864.53
2022-12-22T00:33:38.806Z,99865.34
2022-12-22T00:36:26.610Z,99871.50
2022-12-22T00:39:12.304Z,99865.91
2022-12-22T00:41:58.414Z,99860.25
2022-12-22T00:44:44.413Z,99861.38
2022-12-22T00:47:32.768Z,99862.09
2022-12-22T00:50:20.980Z,99864.66
2022-12-22T00:53:09.146Z,99855.66
2022-12-22T00:55:55.122Z,99855.44
2022-12-22T00:58:41.016Z,99844.41
2022-12-22T01:01:27.443Z,99842.06
2022-12-22T01:04:13.886Z,99843.88
2022-12-22T01:07:01.654Z,99837.25
2022-12-22T01:09:47.336Z,99842.25
2022-12-22T01:12:36.635Z,99839.34
2022-12-22T01:15:22.685Z,99832.88
2022-12-22T01:18:08.612Z,99834.91
2022-12-22T01:20:54.563Z,99832.09
2022-12-22T01:23:41.498Z,99824.94
2022-12-22T01:26:32.100Z,99820.53
2022-12-22T01:29:17.836Z,99825.31
2022-12-22T01:32:04.719Z,99808.72
2022-12-22T01:34:50.717Z,99807.59
2022-12-22T01:37:37.023Z,99803.19
2022-12-22T01:40:26.975Z,99803.19
2022-12-22T01:43:12.885Z,99796.53
2022-12-22T01:45:58.894Z,99796.88
2022-12-22T01:48:47.986Z,99791.34
2022-12-22T01:51:34.806Z,99795.75
2022-12-22T01:54:20.802Z,99793.31
2022-12-22T01:57:08.759Z,99784.84
2022-12-22T01:59:54.170Z,99789.06
2022-12-22T02:02:41.988Z,99788.72
2022-12-22T02:05:30.194Z,99786.38
2022-12-22T02:08:21.783Z,99788.91
2022-12-22T02:11:13.582Z,99787.28
2022-12-22T02:14:09.245Z,99772.88
2022-12-22T02:16:57.262Z,99776.19
2022-12-22T02:19:54.485Z,99773.03
2022-12-22T02:22:46.664Z,99759.25
2022-12-22T02:25:35.441Z,99758.34
2022-12-22T02:28:23.389Z,99749.25
2022-12-22T02:31:09.843Z,99745.75
2022-12-22T02:33:55.579Z,99743.56
2022-12-22T02:36:48.193Z,99749.94
2022-12-22T02:39:38.383Z,99729.34
2022-12-22T02:42:28.398Z,99733.00
2022-12-22T02:45:20.614Z,99728.59
2022-12-22T02:48:09.587Z,99730.06
2022-12-22T02:50:59.871Z,99720.63
2022-12-22T02:53:47.094Z,99735.19
2022-12-22T02:56:32.664Z,99724.88
2022-12-22T02:59:18.299Z,99721.53
2022-12-22T03:02:06.275Z,99705.25
2022-12-22T03:04:52.224Z,99707.47
2022-12-22T03:07:38.125Z,99705.81
2022-12-22T03:10:24.551Z,99710.81
2022-12-22T03:13:10.645Z,99705.59
2022-12-22T03:15:57.656Z,99699.00
2022-12-22T03:18:44.617Z,99693.47
2022-12-22T03:21:30.117Z,99691.34
2022-12-22T03:24:15.779Z,99689.00
2022-12-22T03:26:43.955Z,99686.97
2022-12-22T03:29:14.338Z,99684.38
2022-12-22T03:31:42.674Z,99680.84
2022-12-22T03:34:12.589Z,99671.09
2022-12-22T03:36:40.902Z,99665.00
2022-12-22T03:39:10.779Z,99662.44
2022-12-22T03:41:57.328Z,99661.31
2022-12-22T03:44:45.478Z,99658.22
2022-12-22T03:47:15.227Z,99652.13
2022-12-22T03:49:44.836Z,99665.53
2022-12-22T03:52:14.176Z,99652.03
2022-12-22T03:54:42.423Z,99656.09
2022-12-22T03:57:10.450Z,99656.53
2022-12-22T03:59:42.811Z,99643.75
2022-12-22T04:02:11.513Z,99649.44
2022-12-22T04:04:40.829Z,99640.91
2022-12-22T04:07:11.428Z,99640.72
2022-12-22T04:10:00.629Z,99628.03
2022-12-22T04:12:45.994Z,99619.47
2022-12-22T04:15:15.590Z,99618.09
2022-12-22T04:17:44.006Z,99625.50
2022-12-22T04:20:12.540Z,99631.34
2022-12-22T04:22:41.842Z,99619.22
2022-12-22T04:25:10.481Z,99622.88
2022-12-22T04:27:38.592Z,99617.19
2022-12-22T04:30:07.663Z,99607.75
2022-12-22T04:32:35.966Z,99611.25
2022-12-22T04:35:05.402Z,99606.13
2022-12-22T04:37:33.778Z,99598.16
2022-12-22T04:40:03.303Z,99604.75
2022-12-22T04:42:31.320Z,99595.22
2022-12-22T04:44:59.911Z,99594.41
2022-12-22T04:47:28.313Z,99591.63
2022-12-22T04:49:57.984Z,99603.44
2022-12-22T04:52:26.683Z,99596.59
2022-12-22T04:54:54.792Z,99595.53
2022-12-22T04:57:24.437Z,99597.00
2022-12-22T04:59:53.134Z,99591.06
2022-12-22T05:02:21.462Z,99585.94
2022-12-22T05:04:49.673Z,99580.72
2022-12-22T05:07:17.948Z,99582.34
2022-12-22T05:09:48.516Z,99570.44
2022-12-22T05:12:35.400Z,99566.63
2022-12-22T05:15:05.503Z,99566.22
2022-12-22T05:17:36.665Z,99573.53
2022-12-22T05:20:06.841Z,99575.16
2022-12-22T05:22:37.237Z,99574.09
2022-12-22T05:25:05.590Z,99575.00
2022-12-22T05:27:34.743Z,99573.06
2022-12-22T05:30:08.079Z,99570.44
2022-12-22T05:32:36.200Z,99575.25
2022-12-22T05:35:05.150Z,99570.78
2022-12-22T05:37:33.149Z,99585.03
2022-12-22T05:40:01.208Z,99573.47
2022-12-22T05:42:37.929Z,99583.81
2022-12-22T05:45:12.979Z,99585.28
2022-12-22T05:47:41.450Z,99575.97
2022-12-22T05:50:12.170Z,99579.19
2022-12-22T05:52:41.816Z,99583.13
2022-12-22T05:55:10.410Z,99573.94
2022-12-22T05:57:38.527Z,99573.63
2022-12-22T06:00:07.983Z,99562.47
2022-12-22T06:02:42.633Z,99573.06
2022-12-22T06:05:11.502Z,99575.00
2022-12-22T06:07:39.830Z,99567.13
2022-12-22T06:10:12.446Z,99567.13
2022-12-22T06:12:41.753Z,99579.09
2022-12-22T06:15:14.442Z,99568.31
2022-12-22T06:17:45.439Z,99560.00
2022-12-22T06:20:15.099Z,99572.56
2022-12-22T06:22:43.673Z,99568.19
2022-12-22T06:25:18.152Z,99565.69
2022-12-22T06:27:49.383Z,99561.16
2022-12-22T06:30:19.672Z,99563.38
2022-12-22T06:32:49.177Z,99567.34
2022-12-22T06:35:17.227Z,99563.09
2022-12-22T06:37:45.398Z,99558.72
2022-12-22T06:40:13.899Z,99564.97
2022-12-22T06:43:06.038Z,99569.97
2022-12-22T06:45:39.498Z,99573.63
2022-12-22T06:48:09.812Z,99569.69
2022-12-22T06:50:38.090Z,99579.31
2022-12-22T06:53:06.823Z,99581.03
2022-12-22T06:55:36.239Z,99567.34
2022-12-22T06:58:04.263Z,99567.34
2022-12-22T07:00:32.598Z,99564.72
2022-12-22T07:03:02.402Z,99560.31
2022-12-22T07:05:33.785Z,99561.22
2022-12-22T07:08:08.367Z,99563.88
2022-12-22T07:10:54.175Z,99555.59
2022-12-22T07:13:24.405Z,99561.13
2022-12-22T07:15:59.921Z,99559.06
2022-12-22T07:18:31.017Z,99552.25
2022-12-22T07:21:02.455Z,99550.38
2022-12-22T07:23:32.139Z,99560.72
2022-12-22T07:26:01.636Z,99564.53
2022-12-22T07:28:30.116Z,99563.78
2022-12-22T07:30:58.517Z,99574.63
2022-12-22T07:33:27.796Z,99582.34
2022-12-22T07:36:05.040Z,99585.38
2022-12-22T07:38:33.947Z,99582.28
2022-12-22T07:41:05.749Z,99577.97
2022-12-22T07:43:33.156Z,99592.06
2022-12-22T07:46:01.335Z,99581.00
2022-12-22T07:48:46.980Z,99581.22
2022-12-22T07:51:16.400Z,99586.38
2022-12-22T07:53:44.793Z,99587.59
2022-12-22T07:56:12.829Z,99587.81
2022-12-22T07:58:43.583Z,99588.00
2022-12-22T08:01:11.945Z,99591.75
2022-12-22T08:03:40.699Z,99586.94
2022-12-22T08:06:09.246Z,99582.88
2022-12-22T08:08:43.189Z,99586.09
2022-12-22T08:11:12.400Z,99590.91
2022-12-22T08:13:40.738Z,99597.78
2022-12-22T08:16:10.737Z,99592.06
2022-12-22T08:18:41.688Z,99593.06
2022-12-22T08:21:14.418Z,99587.81
2022-12-22T08:23:46.411Z,99582.63
2022-12-22T08:26:19.730Z,99579.91
2022-12-22T08:28:50.271Z,99580.72
2022-12-22T08:31:22.749Z,99558.31
2022-12-22T08:33:50.731Z,99571.66
2022-12-22T08:36:18.772Z,99571.63
2022-12-22T08:38:48.494Z,99585.22
2022-12-22T08:41:37.442Z,99588.44
2022-12-22T08:44:05.948Z,99582.00
2022-12-22T08:46:34.589Z,99586.69
2022-12-22T08:49:02.631Z,99575.44
2022-12-22T08:51:30.634Z,99580.25
2022-12-22T08:54:05.491Z,99581.41
2022-12-22T08:56:38.126Z,99567.25
2022-12-22T08:59:10.791Z,99567.66
2022-12-22T09:01:40.316Z,99577.59
2022-12-22T09:04:09.098Z,99568.81
2022-12-22T09:06:41.222Z,99570.84
2022-12-22T09:09:11.943Z,99575.88
2022-12-22T09:11:40.669Z,99566.69
2022-12-22T09:14:12.362Z,99568.63
2022-12-22T09:16:42.975Z,99566.03
2022-12-22T09:19:11.903Z,99568.06
2022-12-22T09:21:42.852Z,99566.34
2022-12-22T09:24:12.666Z,99571.78
2022-12-22T09:26:41.775Z,99570.75
2022-12-22T09:29:10.128Z,99575.56
2022-12-22T09:31:38.578Z,99570.75
2022-12-22T09:34:09.581Z,99573.25
2022-12-22T09:36:43.415Z,99571.34
2022-12-22T09:39:12.946Z,99587.41
2022-12-22T09:41:44.187Z,99583.00
2022-12-22T09:44:15.204Z,99582.72
2022-12-22T09:46:44.860Z,99592.06
2022-12-22T09:49:15.433Z,99589.31
2022-12-22T09:51:44.944Z,99593.22
2022-12-22T09:54:16.189Z,99596.78
2022-12-22T09:56:46.992Z,99596.88
2022-12-22T09:59:15.781Z,99607.09
2022-12-22T10:01:55.620Z,99595.69
2022-12-22T10:04:30.869Z,99609.41
2022-12-22T10:07:01.728Z,99613.78
2022-12-22T10:09:50.695Z,99621.81
2022-12-22T10:12:22.334Z,99609.09
2022-12-22T10:14:51.971Z,99613.94
2022-12-22T10:17:22.631Z,99612.44
2022-12-22T10:19:52.441Z,99629.66
2022-12-22T10:22:26.396Z,99630.94
2022-12-22T10:24:56.350Z,99632.56
2022-12-22T10:27:29.319Z,99636.97
2022-12-22T10:30:12.611Z,99631.44
2022-12-22T10:32:40.565Z,99645.72
2022-12-22T10:35:10.717Z,99648.09
2022-12-22T10:37:40.087Z,99651.03
2022-12-22T10:40:16.325Z,99645.59
2022-12-22T10:42:48.955Z,99658.63
2022-12-22T10:45:19.227Z,99664.75
2022-12-22T10:47:49.780Z,99678.63
2022-12-22T10:50:19.152Z,99683.31
2022-12-22T10:52:52.031Z,99686.81
2022-12-22T10:55:25.580Z,99685.81
2022-12-22T10:58:07.431Z,99684.63
2022-12-22T11:00:43.335Z,99689.31
2022-12-22T11:03:22.427Z,99705.66
2022-12-22T11:05:52.716Z,99684.34
2022-12-22T11:08:22.650Z,99701.16
2022-12-22T11:10:54.357Z,99709.19
2022-12-22T11:13:34.837Z,99705.69
2022-12-22T11:16:04.627Z,99711.22
2022-12-22T11:18:51.036Z,99710.34
2022-12-22T11:21:24.490Z,99721.28
2022-12-22T11:24:02.756Z,99727.28
2022-12-22T11:26:39.559Z,99721.88
2022-12-22T11:29:18.038Z,99718.22
2022-12-22T11:31:53.023Z,99726.56
2022-12-22T11:34:25.757Z,99727.72
2022-12-22T11:37:00.669Z,99736.09
2022-12-22T11:39:37.858Z,99737.66
2022-12-22T11:42:22.876Z,99740.88
2022-12-22T11:44:57.468Z,99738.38
2022-12-22T11:47:30.221Z,99750.09
2022-12-22T11:50:58.271Z,99749.34
2022-12-22T11:53:15.969Z,99749.94
2022-12-22T11:55:46.673Z,99753.44
2022-12-22T11:58:22.925Z,99751.09
2022-12-22T12:01:14.970Z,99759.69
2022-12-22T12:03:55.708Z,99758.53
2022-12-22T12:06:27.955Z,99773.19
2022-12-22T12:09:04.527Z,99769.09
2022-12-22T12:11:36.686Z,99761.19
2022-12-22T12:14:12.102Z,99776.97
2022-12-22T12:16:47.734Z,99776.06
2022-12-22T12:19:34.233Z,99784.41
2022-12-22T12:22:03.812Z,99779.16
2022-12-22T12:24:41.819Z,99791.25
2022-12-22T12:27:14.503Z,99794.31
2022-12-22T12:30:00.393Z,99800.00
2022-12-22T12:32:41.365Z,99809.63
2022-12-22T12:35:28.357Z,99812.56
2022-12-22T12:38:01.861Z,99816.50
2022-12-22T12:40:33.430Z,99830.78
2022-12-22T12:43:14.325Z,99824.44
2022-12-22T12:45:45.886Z,99834.66
2022-12-22T12:48:32.379Z,99843.09
2022-12-22T12:51:02.025Z,99844.00
2022-12-22T12:53:31.440Z,99829.44
2022-12-22T12:56:03.457Z,99847.38
2022-12-22T12:58:48.206Z,99847.66
2022-12-22T13:01:31.907Z,99848.50
2022-12-22T13:04:03.673Z,99849.97
2022-12-22T13:06:54.207Z,99854.69
2022-12-22T13:12:30.042Z,99863.78
2022-12-22T13:15:00.344Z,99866.88
2022-12-22T13:17:45.051Z,99861.19
2022-12-22T13:20:17.189Z,99875.63
2022-12-22T13:22:47.159Z,99877.59
2022-12-22T13:25:16.632Z,99866.50
2022-12-22T13:27:44.915Z,99875.13
2022-12-22T13:30:15.228Z,99883.78
2022-12-22T13:32:44.252Z,99880.69
2022-12-22T13:35:34.700Z,99893.09
2022-12-22T13:38:06.903Z,99895.81
2022-12-22T13:40:41.830Z,99893.19
2022-12-22T13:43:12.513Z,99887.31
2022-12-22T13:45:42.766Z,99896.47
2022-12-22T13:48:14.744Z,99897.44
2022-12-22T13:50:45.408Z,99902.25
2022-12-22T13:53:42.233Z,99908.06
2022-12-22T13:56:07.813Z,99917.13
2022-12-22T13:58:40.839Z,99916.78
2022-12-22T14:01:17.083Z,99916.13
2022-12-22T14:04:00.427Z,99911.09
2022-12-22T14:06:32.538Z,99912.88
2022-12-22T14:09:18.420Z,99921.34
2022-12-22T14:11:52.158Z,99919.56
2022-12-22T14:14:24.173Z,99927.88
2022-12-22T14:16:53.702Z,99928.28
2022-12-22T14:19:22.889Z,99933.03
2022-12-22T14:21:55.164Z,99933.94
2022-12-22T14:24:26.425Z,99929.59
2022-12-22T14:26:55.337Z,99932.22
2022-12-22T14:29:26.586Z,99941.91
2022-12-22T14:31:56.209Z,99947.63
2022-12-22T14:34:25.803Z,99950.22
2022-12-22T14:36:54.337Z,99949.91
2022-12-22T14:39:25.221Z,99965.81
2022-12-22T14:41:55.120Z,99946.97
2022-12-22T14:44:25.075Z,99967.69
2022-12-22T14:47:06.178Z,99960.44
2022-12-22T14:49:35.343Z,99963.28
2022-12-22T14:52:06.952Z,99962.56
2022-12-22T14:54:36.563Z,99965.31
2022-12-22T14:57:15.564Z,99960.72
2022-12-22T14:59:58.796Z,99959.31
2022-12-22T15:02:31.107Z,99962.81
2022-12-22T15:05:24.471Z,99953.28
2022-12-22T15:08:05.267Z,99962.22
2022-12-22T15:10:39.338Z,99965.78
2022-12-22T15:13:08.876Z,99966.25
2022-12-22T15:15:42.236Z,99958.56
2022-12-22T15:18:14.100Z,99964.34
2022-12-22T15:20:44.421Z,99970.25
2022-12-22T15:26:52.552Z,99958.50
2022-12-22T15:29:23.144Z,99957.00
2022-12-22T15:31:51.801Z,99952.56
2022-12-22T15:34:23.852Z,99952.00
2022-12-22T15:36:52.369Z,99954.00
2022-12-22T15:39:22.783Z,99959.53
2022-12-22T15:41:53.341Z,99960.09
2022-12-22T15:44:22.509Z,99957.72
2022-12-22T15:46:56.991Z,99961.03
2022-12-22T15:49:30.648Z,99953.63
2022-12-22T15:52:01.655Z,99954.00
2022-12-22T15:54:33.058Z,99964.34
2022-12-22T15:57:08.133Z,99950.13
2022-12-22T15:59:38.490Z,99952.19
2022-12-22T16:02:12.001Z,99960.66
2022-12-22T16:04:41.025Z,99960.97
2022-12-22T16:07:13.687Z,99966.19
2022-12-22T16:09:43.793Z,99957.38
2022-12-22T16:12:15.256Z,99949.66
2022-12-22T16:14:50.025Z,99942.66
2022-12-22T16:17:20.903Z,99948.63
2022-12-22T16:19:49.833Z,99952.03
2022-12-22T16:22:19.426Z,99944.50
2022-12-22T16:24:49.031Z,99944.31
2022-12-22T16:27:19.000Z,99943.22
2022-12-22T16:29:49.691Z,99939.19
2022-12-22T16:32:24.040Z,99935.53
2022-12-22T16:34:52.099Z,99949.16
2022-12-22T16:37:22.483Z,99944.00
2022-12-22T16:39:50.940Z,99941.81
2022-12-22T16:45:16.586Z,99933.34
2022-12-22T16:47:44.978Z,99931.13
2022-12-22T16:50:17.780Z,99923.38
2022-12-22T16:52:47.546Z,99926.94
2022-12-22T16:55:16.924Z,99921.41
2022-12-22T16:57:47.481Z,99924.22
2022-12-22T17:00:17.956Z,99934.22
2022-12-22T17:02:54.989Z,99929.78
2022-12-22T17:05:26.494Z,99934.78
2022-12-22T17:07:55.271Z,99936.63
2022-12-22T17:10:24.336Z,99938.47
2022-12-22T17:12:57.881Z,99936.06
2022-12-22T17:15:25.927Z,99933.28
2022-12-22T17:17:55.071Z,99934.75
2022-12-22T17:20:24.517Z,99929.44
2022-12-22T17:22:53.999Z,99917.47
2022-12-22T17:25:24.217Z,99919.47
2022-12-22T17:27:52.307Z,99926.50
2022-12-22T17:30:23.252Z,99917.66
2022-12-22T17:32:52.818Z,99915.03
2022-12-22T17:35:22.825Z,99908.03
2022-12-22T17:37:51.458Z,99903.78
2022-12-22T17:40:26.573Z,99908.19
2022-12-22T17:42:54.845Z,99894.34
2022-12-22T17:45:24.373Z,99893.97
2022-12-22T17:47:55.554Z,99887.50
2022-12-22T17:50:24.602Z,99891.91
2022-12-22T17:52:55.403Z,99874.22
2022-12-22T17:56:01.189Z,99890.81
2022-12-22T17:58:14.600Z,99874.91
2022-12-22T18:00:45.046Z,99865.44
2022-12-22T18:03:13.518Z,99861.03
2022-12-22T18:05:45.955Z,99862.16
2022-12-22T18:08:17.003Z,99854.94
2022-12-22T18:10:48.419Z,99852.34
2022-12-22T18:13:18.635Z,99848.09
2022-12-22T18:15:48.950Z,99833.53
2022-12-22T18:18:18.351Z,99840.34
2022-12-22T18:21:07.448Z,99849.00
2022-12-22T18:23:43.156Z,99833.88
2022-12-22T18:26:19.794Z,99828.16
2022-12-22T18:28:47.958Z,99823.91
2022-12-22T18:31:17.807Z,99821.16
2022-12-22T18:33:46.461Z,99827.38
2022-12-22T18:36:19.487Z,99819.28
2022-12-22T18:38:48.397Z,99816.13
2022-12-22T18:41:19.867Z,99808.91
2022-12-22T18:43:49.637Z,99802.41
2022-12-22T18:46:19.724Z,99804.09
2022-12-22T18:48:48.913Z,99800.63
2022-12-22T18:51:22.633Z,99801.16
2022-12-22T18:53:51.458Z,99799.31
2022-12-22T18:56:20.781Z,99799.13
2022-12-22T18:58:50.072Z,99801.16
2022-12-22T19:01:21.932Z,99801.72
2022-12-22T19:03:50.838Z,99806.16
2022-12-22T19:06:20.649Z,99804.09
2022-12-22T19:08:49.483Z,99795.56
2022-12-22T19:11:19.234Z,99796.78
2022-12-22T19:13:50.138Z,99795.13
2022-12-22T19:16:21.905Z,99791.22
2022-12-22T19:18:52.820Z,99792.38
2022-12-22T19:21:23.398Z,99787.75
2022-12-22T19:23:51.545Z,99785.19
2022-12-22T19:26:42.154Z,99779.47
2022-12-22T19:29:12.595Z,99778.72
2022-12-22T19:31:41.701Z,99775.41
2022-12-22T19:34:16.570Z,99768.75
2022-12-22T19:36:45.028Z,99767.84
2022-12-22T19:39:16.841Z,99757.91
2022-12-22T19:41:49.560Z,99755.31
2022-12-22T19:47:17.947Z,99756.78
2022-12-22T19:49:46.477Z,99757.91
2022-12-22T19:52:15.596Z,99749.84
2022-12-22T19:54:45.784Z,99761.63
2022-12-22T19:57:19.371Z,99750.56
2022-12-22T19:59:53.832Z,99750.44
2022-12-22T20:02:28.078Z,99746.97
2022-12-22T20:04:58.170Z,99753.94
2022-12-22T20:07:34.645Z,99737.75
2022-12-22T20:10:02.863Z,99737.75
2022-12-22T20:12:43.384Z,99737.41
2022-12-22T20:15:25.460Z,99733.97
2022-12-22T20:18:00.191Z,99735.25
2022-12-22T20:20:42.271Z,99733.97
2022-12-22T20:23:16.989Z,99715.16
2022-12-22T20:25:48.303Z,99715.88
2022-12-22T20:28:22.501Z,99724.59
2022-12-22T20:30:51.179Z,99707.28
2022-12-22T20:33:25.853Z,99707.41
2022-12-22T20:35:59.081Z,99707.41
2022-12-22T20:38:33.427Z,99701.56
2022-12-22T20:41:03.175Z,99699.47
2022-12-22T20:43:37.213Z,99707.41
2022-12-22T20:46:13.559Z,99699.47
2022-12-22T20:48:48.478Z,99700.72
2022-12-22T20:51:22.465Z,99690.44
2022-12-22T20:53:57.307Z,99698.16
2022-12-22T20:56:30.473Z,99699.41
2022-12-22T20:59:02.910Z,99688.94
2022-12-22T21:01:31.300Z,99690.38
2022-12-22T21:04:01.438Z,99688.16
2022-12-22T21:06:32.047Z,99685.03
2022-12-22T21:09:01.983Z,99680.03
2022-12-22T21:11:30.884Z,99673.97
2022-12-22T21:14:00.285Z,99665.19
2022-12-22T21:16:32.146Z,99662.31
2022-12-22T21:19:02.496Z,99659.88
2022-12-22T21:21:33.487Z,99657.28
2022-12-22T21:24:02.130Z,99660.78
2022-12-22T21:26:32.320Z,99655.25
2022-12-22T21:29:02.073Z,99659.88
2022-12-22T21:31:30.562Z,99649.38
2022-12-22T21:33:59.300Z,99652.00
2022-12-22T21:36:33.154Z,99644.34
2022-12-22T21:39:05.175Z,99641.25
2022-12-22T21:41:51.622Z,99648.09
2022-12-22T21:44:20.817Z,99641.59
2022-12-22T21:46:49.395Z,99635.50
2022-12-22T21:49:19.823Z,99634.59
2022-12-22T21:51:50.500Z,99632.56
2022-12-22T21:54:22.286Z,99627.94
2022-12-22T21:56:51.772Z,99627.94
2022-12-22T21:59:22.073Z,99624.09
2022-12-22T22:01:52.854Z,99623.38
2022-12-22T22:04:22.628Z,99617.84
2022-12-22T22:06:52.605Z,99612.47
2022-12-22T22:09:22.355Z,99611.41
2022-12-22T22:12:08.821Z,99609.69
2022-12-22T22:14:37.579Z,99606.19
2022-12-22T22:17:07.194Z,99598.63
2022-12-22T22:19:35.555Z,99595.13
2022-12-22T22:22:05.610Z,99592.03
2022-12-22T22:24:34.637Z,99593.50
2022-12-22T22:27:04.232Z,99590.00
2022-12-22T22:29:34.094Z,99591.13
2022-12-22T22:32:04.061Z,99590.56
2022-12-22T22:34:36.952Z,99584.84
2022-12-22T22:37:06.800Z,99588.19
2022-12-22T22:39:34.865Z,99587.47
2022-12-22T22:42:03.223Z,99596.34
2022-12-22T22:44:31.540Z,99597.66
2022-12-22T22:47:00.990Z,99600.72
2022-12-22T22:49:29.301Z,99597.78
2022-12-22T22:51:57.803Z,99599.28
2022-12-22T22:54:27.475Z,99596.69
2022-12-22T22:56:56.117Z,99589.50
2022-12-22T22:59:25.347Z,99579.75
2022-12-22T23:01:53.820Z,99583.97
2022-12-22T23:04:22.471Z,99578.41
2022-12-22T23:06:51.071Z,99584.72
2022-12-22T23:09:19.525Z,99568.34
2022-12-22T23:11:52.169Z,99576.72
2022-12-22T23:14:22.618Z,99567.94
2022-12-22T23:16:52.479Z,99569.75
2022-12-22T23:19:23.013Z,99574.19
2022-12-22T23:21:52.121Z,99564.44
2022-12-22T23:24:20.611Z,99560.19
2022-12-22T23:26:50.608Z,99557.53
2022-12-22T23:29:19.289Z,99558.09
2022-12-22T23:31:48.620Z,99556.16
2022-12-22T23:34:18.520Z,99542.47
2022-12-22T23:36:47.989Z,99541.34
2022-12-22T23:39:17.303Z,99535.47
2022-12-22T23:41:45.472Z,99535.47
2022-12-22T23:44:15.400Z,99528.88
2022-12-22T23:46:43.747Z,99521.09
2022-12-22T23:49:15.964Z,99521.81
2022-12-22T23:51:44.746Z,99522.06
2022-12-22T23:54:13.052Z,99504.72
2022-12-22T23:56:42.046Z,99504.72
2022-12-22T23:59:10.975Z,99504.72
